Latest Weather Observations for Campbelltown

IDN60901

Issued at 10:01 pm EST Tuesday 4 August 2015 (issued every 10 minutes, with the page automatically refreshed every 10 minutes)

About weather observations | Map of Sydney area stations | Latest observations for Sydney area | Other Formats
Station Details ID: 068257 Name: CAMPBELLTOWN (MOUNT ANNAN) Lat: -34.06 Lon: 150.77 Height: 112.0 m
Data from the previous 72 hours. | See also: Recent months at Campbelltown
Date/Time
EST
Tmp

°C
App
Tmp
°C
Dew
Point
°C
Rel
Hum
%
Delta-T

°C
Wind Press
QNH
hPa
Press
MSL
hPa
Rain
since
9 am
mm
Dir
 
Spd
km/h
Gust
km/h
Spd
kts
Gust
kts
04/09:30pm 6.6 1.8 -2.3 53 3.3 SW 13 17 7 9 - - 0.0
04/09:00pm 5.9 2.3 -2.0 57 2.9 SW 7 15 4 8 - - 0.0
04/08:30pm 6.6 3.0 -2.3 53 3.3 SW 7 13 4 7 - - 0.0
04/08:00pm 7.6 4.0 -2.4 49 3.7 SW 7 13 4 7 - - 0.0
04/07:30pm 8.7 4.3 -2.6 45 4.2 SW 11 19 6 10 - - 0.0
04/07:00pm 9.7 5.4 -1.6 45 4.4 SW 11 20 6 11 - - 0.0
04/06:30pm 8.6 5.7 2.4 65 2.6 W 7 11 4 6 - - 0.0
04/06:00pm 7.6 5.8 1.5 65 2.5 CALM 0 0 0 0 - - 0.0
04/05:30pm 8.9 7.1 0.9 57 3.3 CALM 0 0 0 0 - - 0.0
04/05:00pm 11.0 7.5 1.0 50 4.2 N 9 15 5 8 - - 0.0
04/04:30pm 12.0 7.9 0.1 44 4.9 N 11 15 6 8 - - 0.0
04/04:00pm 12.8 8.8 0.2 42 5.3 N 11 19 6 10 - - 0.0
04/03:30pm 13.5 9.5 0.5 41 5.5 NNW 11 20 6 11 - - 0.0
04/03:00pm 13.5 9.5 0.2 40 5.6 NNW 11 17 6 9 - - 0.0
04/02:30pm 13.7 9.3 0.4 40 5.6 N 13 22 7 12 - - 0.0
04/02:00pm 13.2 8.7 -0.4 39 5.6 NNW 13 20 7 11 - - 0.0
04/01:30pm 13.0 8.7 -1.3 37 5.8 N 11 17 6 9 - - 0.0
04/01:00pm 12.9 9.3 -2.2 35 6.0 W 7 13 4 7 - - 0.0
04/12:30pm 12.9 9.5 -1.8 36 5.9 N 6 11 3 6 - - 0.0
04/12:00pm 12.3 9.0 -0.2 42 5.1 NNW 7 11 4 6 - - 0.0
04/11:30am 11.6 7.7 -1.5 40 5.2 W 9 15 5 8 - - 0.0
04/11:00am 11.6 8.4 -0.5 43 4.9 W 6 9 3 5 - - 0.0
04/10:30am 10.8 7.6 0.8 50 4.2 SSW 7 13 4 7 - - 0.0
04/10:00am 9.3 5.8 1.2 57 3.3 SW 9 15 5 8 - - 0.0
04/09:30am 8.7 4.9 1.6 61 2.9 SSW 11 17 6 9 - - 0.0
04/09:00am 7.4 3.1 0.8 63 2.6 SSW 13 19 7 10 - - 0.0
04/08:30am 6.6 2.7 1.1 68 2.2 SSW 11 17 6 9 - - 0.0
04/08:00am 5.9 2.4 1.1 71 1.9 SSW 9 15 5 8 - - 0.0
04/07:30am 5.0 1.9 1.1 76 1.5 SSW 7 13 4 7 - - 0.0
04/07:00am 4.6 1.4 0.9 77 1.4 SSW 7 11 4 6 - - 0.0
04/06:30am 4.4 1.2 0.7 77 1.4 S 7 11 4 6 - - 0.0
04/06:00am 4.8 1.6 0.9 76 1.5 S 7 13 4 7 - - 0.0
04/05:30am 4.6 1.5 1.1 78 1.4 SSW 7 11 4 6 - - 0.0
04/05:00am 4.6 1.4 0.9 77 1.4 SSW 7 11 4 6 - - 0.0
04/04:30am 4.5 1.3 0.8 77 1.4 S 7 11 4 6 - - 0.0
04/04:00am 4.5 1.3 1.0 78 1.4 S 7 11 4 6 - - 0.0
04/03:30am 4.5 1.3 1.0 78 1.4 SSW 7 11 4 6 - - 0.0
04/03:00am 4.0 1.0 0.5 78 1.3 SSW 6 9 3 5 - - 0.0
04/02:30am 4.9 1.9 0.9 75 1.6 S 6 9 3 5 - - 0.0
04/02:00am 5.5 2.4 1.1 73 1.7 SSW 7 13 4 7 - - 0.0
04/01:30am 4.4 1.4 2.1 85 0.9 S 7 9 4 5 - - 0.0
04/01:00am 3.1 0.3 1.9 92 0.5 S 6 7 3 4 - - 0.0
04/12:30am 2.6 0.1 1.3 91 0.5 SSW 4 7 2 4 - - 0.0
04/12:00am 3.0 1.3 1.7 91 0.5 CALM 0 0 0 0 - - 0.0
 
Date/Time
EST
Tmp

°C
App
Tmp
°C
Dew
Point
°C
Rel
Hum
%
Delta-T

°C
Wind Press
QNH
hPa
Press
MSL
hPa
Rain
since
9 am
mm
Dir
 
Spd
km/h
Gust
km/h
Spd
kts
Gust
kts
03/11:30pm 3.3 1.2 1.5 88 0.7 S 2 7 1 4 - - 0.0
03/11:00pm 3.8 2.1 1.7 86 0.8 CALM 0 0 0 0 - - 0.0
03/10:30pm 4.2 2.4 1.4 82 1.1 CALM 0 0 0 0 - - 0.0
03/10:00pm 5.0 2.1 1.7 79 1.3 S 6 7 3 4 - - 0.0
03/09:30pm 5.7 3.9 1.4 74 1.7 CALM 0 0 0 0 - - 0.0
03/09:00pm 6.8 3.9 1.3 68 2.2 SSW 6 7 3 4 - - 0.0
03/08:30pm 8.8 5.7 1.5 60 3.0 SSW 7 13 4 7 - - 0.0
03/08:00pm 9.3 6.5 1.9 60 3.1 SSW 6 9 3 5 - - 0.0
03/07:30pm 10.0 7.6 2.4 59 3.2 SSW 4 7 2 4 - - 0.0
03/07:00pm 11.0 7.0 2.8 57 3.6 SW 13 24 7 13 - - 0.0
03/06:30pm 11.6 8.5 1.5 50 4.3 SSW 7 13 4 7 - - 0.0
03/06:00pm 12.2 8.3 0.9 46 4.8 WSW 11 20 6 11 - - 0.0
03/05:30pm 12.9 8.6 1.0 44 5.1 W 13 32 7 17 - - 0.0
03/05:00pm 13.3 8.2 0.7 42 5.3 WSW 17 32 9 17 - - 0.0
03/04:30pm 13.9 8.4 0.9 41 5.6 WSW 19 35 10 19 - - 0.0
03/04:00pm 14.1 8.4 0.4 39 5.8 WSW 20 32 11 17 - - 0.0
03/03:30pm 15.1 9.9 0.2 36 6.4 W 17 32 9 17 - - 0.0
03/03:00pm 15.8 10.3 0.8 36 6.5 WSW 19 35 10 19 - - 0.0
03/02:30pm 15.8 10.6 0.4 35 6.6 WSW 17 32 9 17 - - 0.0
03/02:00pm 16.0 10.2 0.2 34 6.8 W 20 32 11 17 - - 0.0
03/01:30pm 16.3 10.8 0.8 35 6.8 WSW 19 35 10 19 - - 0.0
03/01:00pm 16.1 10.4 0.3 34 6.8 WSW 20 37 11 20 - - 0.0
03/12:30pm 16.2 10.8 1.5 37 6.5 WSW 19 30 10 16 - - 0.0
03/12:00pm 15.8 10.8 1.2 37 6.4 WSW 17 28 9 15 - - 0.0
03/11:30am 15.3 9.7 1.4 39 6.1 WSW 20 33 11 18 - - 0.0
03/11:00am 15.1 10.8 0.9 38 6.2 WSW 13 24 7 13 - - 0.0
03/10:30am 14.6 10.7 1.2 40 5.8 NW 11 24 6 13 - - 0.0
03/10:00am 13.6 9.3 1.3 43 5.3 N 13 17 7 9 - - 0.0
03/09:30am 13.5 10.4 1.5 44 5.2 NNW 7 15 4 8 - - 0.0
03/09:00am 12.0 8.4 0.8 46 4.7 NNW 9 13 5 7 - - 0.0
03/08:30am 10.7 7.1 0.4 49 4.2 NNW 9 11 5 6 - - 0.0
03/08:00am 9.1 6.0 1.3 58 3.2 NW 7 9 4 5 - - 0.0
03/07:30am 5.0 3.2 1.3 77 1.5 CALM 0 0 0 0 - - 0.0
03/07:00am 4.9 1.9 0.5 73 1.7 SW 6 9 3 5 - - 0.0
03/06:30am 7.1 4.1 0.5 63 2.6 NW 6 7 3 4 - - 0.0
03/06:00am 8.1 5.0 0.3 58 3.1 W 6 11 3 6 - - 0.0
03/05:30am 8.6 5.4 -0.2 54 3.5 W 6 13 3 7 - - 0.0
03/05:00am 7.6 4.5 -0.1 58 3.0 W 6 13 3 7 - - 0.0
03/04:30am 8.2 5.0 -0.5 54 3.4 W 6 11 3 6 - - 0.0
03/04:00am 8.7 5.3 -0.6 52 3.7 W 7 13 4 7 - - 0.0
03/03:30am 9.0 5.2 -0.9 50 3.9 W 9 17 5 9 - - 0.0
03/03:00am 8.9 5.1 -0.9 50 3.8 WNW 9 17 5 9 - - 0.0
03/02:30am 9.2 5.0 -1.2 48 4.1 SW 11 22 6 12 - - 0.0
03/02:00am 9.6 5.3 -1.4 46 4.3 WSW 11 22 6 12 - - 0.0
03/01:30am 9.8 5.2 -1.3 46 4.3 SW 13 20 7 11 - - 0.0
03/01:00am 10.4 5.8 -0.7 46 4.4 SW 13 19 7 10 - - 0.0
03/12:30am 11.2 6.4 0.0 46 4.6 SW 15 20 8 11 - - 0.0
03/12:00am 11.5 7.9 0.6 47 4.5 SW 9 15 5 8 - - 0.0
 
Date/Time
EST
Tmp

°C
App
Tmp
°C
Dew
Point
°C
Rel
Hum
%
Delta-T

°C
Wind Press
QNH
hPa
Press
MSL
hPa
Rain
since
9 am
mm
Dir
 
Spd
km/h
Gust
km/h
Spd
kts
Gust
kts
02/11:30pm 12.1 8.9 3.3 55 3.9 SSW 9 19 5 10 - - 0.0
02/11:00pm 11.7 9.1 6.2 69 2.6 SSW 9 15 5 8 - - 0.0
02/10:30pm 13.3 11.1 6.2 62 3.4 SSW 7 11 4 6 - - 0.0
02/10:00pm 14.6 12.1 6.4 58 4.0 WSW 9 15 5 8 - - 0.0
02/09:30pm 15.4 11.8 6.9 57 4.2 WNW 15 24 8 13 - - 0.0
02/09:00pm 15.6 12.9 7.4 58 4.1 WNW 11 19 6 10 - - 0.0
02/08:30pm 16.2 13.8 7.2 55 4.5 WSW 9 15 5 8 - - 0.0
02/08:00pm 16.2 13.6 6.1 51 4.9 SSW 9 15 5 8 - - 0.0
02/07:30pm 17.2 14.2 6.1 48 5.5 W 11 20 6 11 - - 0.0
02/07:00pm 17.9 14.1 5.8 45 5.9 W 15 33 8 18 - - 0.0
02/06:30pm 17.9 15.6 5.5 44 6.0 SW 7 9 4 5 - - 0.0
02/06:00pm 18.8 15.9 4.6 39 6.8 W 9 13 5 7 - - 0.0
02/05:30pm 18.9 16.6 4.7 39 6.9 NW 6 9 3 5 - - 0.0
02/05:00pm 20.4 16.3 4.4 35 7.8 WNW 15 24 8 13 - - 0.0
02/04:30pm 21.4 17.3 4.5 33 8.3 WNW 15 26 8 14 - - 0.0
02/04:00pm 22.3 17.7 3.9 30 9.0 NW 17 26 9 14 - - 0.0
02/03:30pm 23.1 19.2 3.6 28 9.5 WNW 13 28 7 15 - - 0.0
02/03:00pm 23.9 18.9 3.8 27 9.9 NW 19 32 10 17 - - 0.0
02/02:30pm 23.8 19.4 4.7 29 9.6 N 17 24 9 13 - - 0.0
02/02:00pm 23.2 19.9 6.5 34 8.6 NNW 13 19 7 10 - - 0.0
02/01:30pm 21.8 18.4 5.7 35 8.1 WNW 13 22 7 12 - - 0.0
02/01:00pm 20.0 17.3 5.6 39 7.1 WNW 9 15 5 8 - - 0.0
02/12:30pm 19.7 17.6 5.7 40 6.9 N 6 9 3 5 - - 0.0
02/12:00pm 18.7 16.4 5.9 43 6.3 N 7 9 4 5 - - 0.0
02/11:30am 19.2 17.0 6.3 43 6.5 N 7 11 4 6 - - 0.0
02/11:00am 19.0 16.8 6.1 43 6.4 NNE 7 11 4 6 - - 0.0
02/10:30am 17.4 15.3 6.6 49 5.4 NNW 7 11 4 6 - - 0.0
02/10:00am 16.7 14.9 7.9 56 4.5 NW 7 11 4 6 - - 0.0
02/09:30am 16.4 14.6 7.1 54 4.6 N 6 7 3 4 - - 0.0
02/09:00am 14.6 12.9 7.6 63 3.5 ENE 6 11 3 6 - - 0.0
02/08:30am 11.4 9.9 8.4 82 1.5 S 6 11 3 6 - - 0.0
02/08:00am 6.6 5.4 6.3 98 0.1 WSW 2 11 1 6 - - 0.0
02/07:30am 5.7 4.6 5.1 96 0.3 CALM 0 0 0 0 - - 0.0
02/07:00am 5.9 4.8 5.2 95 0.3 CALM 0 0 0 0 - - 0.0
02/06:30am 6.0 4.8 4.8 92 0.5 CALM 0 0 0 0 - - 0.0
02/06:00am 7.0 5.3 6.1 94 0.4 W 4 7 2 4 - - 0.0
02/05:30am 6.3 5.3 5.4 94 0.4 CALM 0 0 0 0 - - 0.0
02/05:00am 7.0 5.2 5.6 91 0.6 W 4 7 2 4 - - 0.0
02/04:30am 8.2 7.3 6.2 87 0.9 CALM 0 0 0 0 - - 0.0
02/04:00am 9.6 8.8 6.7 82 1.4 CALM 0 0 0 0 - - 0.0
02/03:30am 10.0 9.4 7.6 85 1.2 CALM 0 0 0 0 - - 0.0
02/03:00am 9.9 9.4 7.7 86 1.1 CALM 0 0 0 0 - - 0.0
02/02:30am 9.6 8.2 7.4 86 1.1 W 4 7 2 4 - - 0.0
02/02:00am 8.7 8.1 7.5 92 0.6 CALM 0 0 0 0 - - 0.0
02/01:30am 8.1 7.3 6.6 90 0.7 CALM 0 0 0 0 - - 0.0
02/01:00am 7.4 5.8 4.5 82 1.3 W 2 7 1 4 - - 0.0
02/12:30am 8.3 7.2 5.2 81 1.4 CALM 0 0 0 0 - - 0.0
02/12:00am 8.7 7.6 5.3 79 1.5 CALM 0 0 0 0 - - 0.0
 
Date/Time
EST
Tmp

°C
App
Tmp
°C
Dew
Point
°C
Rel
Hum
%
Delta-T

°C
Wind Press
QNH
hPa
Press
MSL
hPa
Rain
since
9 am
mm
Dir
 
Spd
km/h
Gust
km/h
Spd
kts
Gust
kts
01/11:30pm 8.8 7.7 5.2 78 1.6 CALM 0 0 0 0 - - 0.0
01/11:00pm 8.9 7.8 4.9 76 1.8 CALM 0 0 0 0 - - 0.0
01/10:30pm 10.3 8.1 5.1 70 2.4 W 6 7 3 4 - - 0.0

Latest Capital City Observations: Canberra | Sydney | Melbourne | Brisbane | Adelaide | Perth | Hobart | Darwin

Other Formats:

Comma delimited format used in spreadsheet applications
http://www.bom.gov.au/fwo/IDN60901/IDN60901.94757.axf

JavaScript Object Notation format (JSON) in row-major order
http://www.bom.gov.au/fwo/IDN60901/IDN60901.94757.json